Aérodrome :
LOGIN :

S'inscrire | Disclaimer

   EN    FR    IT 

 










Légende :    VFR   VFR Marginal   IFR   IFR Intensif   IFR Très Intensif
Visi : 
Plafond : 
>= 8 km
>= 3000ft
5 à 8 km
1000 à 3000 ft
1500m à 5 km
500 à 1000 ft
800 à 1500m
200 à 500 ft
< 800m
< 200 ft
Symboles :   Orages  Brouillard  Fortes neiges  Fortes précipitations  Vent > 20 kt
SIGMETs :   Divers  Orages  Givrage  Turbulence  Onde Orograph.  Cendres Volcan.






- Altitude de l'aérodrome : 659 ft
- Code IATA : LGG


EBLG - Liège

DERNIER METAR :
  • 260520Z 29011KT 9999 SCT006 BKN007 10/09 Q0997 BECMG BKN012

METARs EXPIRÉS :
  • 260450Z 29013KT 9999 SCT005 BKN007 10/09 Q0996 NOSIG
  • 260420Z 29012KT 9999 SCT006 BKN010 10/09 Q0996 TEMPO 4000 SHRA BKN008
  • 260350Z 28015KT 9999 FEW006 BKN012 10/09 Q0996 TEMPO 4000 SHRA
  • 260320Z 28016G26KT 9999 -RA FEW005 BKN008 09/09 Q0995 TEMPO 4000 RA
  • 260250Z 27016KT 8000 FEW007 BKN010 09/09 Q0995 TEMPO 4000 RA
  • 260220Z 27021KT 9000 -RA FEW006 BKN008 09/09 Q0995 TEMPO 26023G35KT 4000 RA

TAF TAF EBLG
Valide du 26 à 00h jusqu'au 27 à 06h UTC


252320Z 2600/2706 25020G32KT 9999 BKN018
PROB40
TEMPO 2600/2612 3800 SHRA SCT006 BKN011CB
BECMG 2604/2606 28012KT
PROB30
TEMPO 2612/2621 4000 SHRA SCT005 BKN011CB
PROB40
TEMPO 2621/2706 3800 RA SHRA SCT005 BKN010CB
TEMPO 2701/2706 BKN005



MET'MAP, la Météo Aéronautique d'un coup d'oeil ! - Copyright ORBIFLY Décembre 2007 - Disclaimer

ORBIFLY MET'MAP TEAM :

Programmation & Développement : Alexandra Zaïnal
Sur une idée originale de : Baudouin d'Aumeries
Assistance à la programmation : Marc-Olivier Méhu
Soutien technique & logistique : Manuel Goepfert

Contact : metmap@orbifly.com




SOURCES & CREDITS :

   NOAA